createdAt,value
2022-10-17T05:48:37.191Z,99.99
2022-10-17T05:49:46.348Z,99.99
2022-10-17T05:50:38.090Z,99.99
2022-10-17T05:51:37.040Z,99.99
2022-10-17T05:52:36.969Z,99.99
2022-10-17T05:53:36.923Z,99.99
2022-10-17T05:54:36.873Z,99.99
2022-10-17T05:55:36.824Z,99.99
2022-10-17T05:56:36.771Z,99.99
2022-10-17T05:57:36.706Z,99.99
2022-10-17T05:58:49.851Z,99.99
2022-10-17T05:59:37.583Z,99.99
2022-10-17T06:00:36.592Z,99.99
2022-10-17T06:01:36.495Z,99.99
2022-10-17T06:02:36.385Z,99.99
2022-10-17T06:03:36.325Z,99.99
2022-10-17T06:04:36.255Z,99.99
2022-10-17T06:05:36.225Z,99.99
2022-10-17T06:06:36.136Z,99.99
2022-10-17T06:07:36.077Z,99.99
2022-10-17T06:08:36.016Z,99.99
2022-10-17T06:09:36.053Z,99.99
2022-10-17T06:10:35.876Z,99.99
2022-10-17T06:11:35.817Z,99.99
2022-10-17T06:12:35.734Z,99.99
2022-10-17T06:13:35.686Z,99.99
2022-10-17T06:14:35.607Z,99.99
2022-10-17T06:15:35.541Z,99.99
2022-10-17T06:16:35.476Z,99.99
2022-10-17T06:17:35.388Z,99.99
2022-10-17T06:18:35.414Z,99.99
2022-10-17T06:19:35.257Z,99.99
2022-10-17T06:20:35.175Z,99.99
2022-10-17T06:21:35.110Z,99.99
2022-10-17T06:22:35.030Z,99.99
2022-10-17T06:23:34.960Z,99.99
2022-10-17T06:24:34.979Z,99.99
2022-10-17T06:25:34.817Z,99.99
2022-10-17T06:26:34.777Z,99.99
2022-10-17T06:27:34.682Z,99.99
2022-10-17T06:28:34.755Z,99.99
2022-10-17T06:29:34.553Z,99.99
2022-10-17T06:30:34.472Z,99.99
2022-10-17T06:31:34.413Z,99.99
2022-10-17T06:32:34.322Z,99.99
2022-10-17T06:33:34.259Z,99.99
2022-10-17T06:34:34.173Z,99.99
2022-10-17T06:35:34.175Z,99.99
2022-10-17T06:36:34.033Z,99.99
2022-10-17T06:37:36.511Z,99.99
2022-10-17T06:38:33.908Z,99.99
2022-10-17T06:39:33.868Z,99.99
2022-10-17T06:40:33.724Z,99.99
2022-10-17T06:41:33.724Z,99.99
2022-10-17T06:42:33.645Z,99.99
2022-10-17T06:43:33.526Z,99.99
2022-10-17T06:44:33.445Z,99.99
2022-10-17T06:45:33.366Z,99.99
2022-10-17T06:46:33.297Z,99.99
2022-10-17T06:47:33.311Z,99.99
2022-10-17T06:48:33.166Z,99.99
2022-10-17T06:49:33.055Z,99.99
2022-10-17T06:50:32.996Z,99.99
2022-10-17T06:51:32.906Z,99.99
2022-10-17T06:52:32.856Z,99.99
2022-10-17T06:53:32.747Z,99.99
2022-10-17T06:54:32.687Z,99.99
2022-10-17T06:55:32.589Z,99.99
2022-10-17T06:56:32.519Z,99.99
2022-10-17T06:57:32.602Z,99.99
2022-10-17T06:58:32.358Z,99.99
2022-10-17T06:59:32.278Z,99.99
2022-10-17T07:00:32.218Z,99.99
2022-10-17T07:01:32.110Z,99.99
2022-10-17T07:02:32.248Z,99.99
2022-10-17T07:03:31.969Z,99.99
2022-10-17T07:04:31.901Z,99.99
2022-10-17T07:05:31.820Z,99.99
2022-10-17T07:06:31.720Z,99.99
2022-10-17T07:07:31.879Z,99.99
2022-10-17T07:08:31.570Z,99.99
2022-10-17T07:09:31.481Z,99.99
2022-10-17T07:10:31.410Z,99.99
2022-10-17T07:11:31.313Z,99.99
2022-10-17T07:12:31.232Z,99.99
2022-10-17T07:13:34.424Z,99.99
2022-10-17T07:14:32.262Z,99.99
2022-10-17T07:15:30.989Z,99.99
2022-10-17T07:16:30.962Z,99.99
2022-10-17T07:17:31.223Z,99.99
2022-10-17T07:18:30.844Z,99.99
2022-10-17T07:19:30.668Z,99.99
2022-10-17T07:20:30.574Z,99.99
2022-10-17T07:21:32.112Z,99.99
2022-10-17T07:22:30.414Z,99.99
2022-10-17T07:23:30.374Z,99.99
2022-10-17T07:24:30.225Z,99.99
2022-10-17T07:25:30.151Z,99.99
2022-10-17T07:26:30.035Z,99.99
2022-10-17T07:27:30.267Z,99.99
2022-10-17T07:28:29.894Z,99.99
2022-10-17T07:29:29.756Z,99.99
2022-10-17T07:30:29.674Z,99.99
2022-10-17T07:31:29.575Z,99.99
2022-10-17T07:32:29.468Z,99.99
2022-10-17T07:33:29.372Z,99.99
2022-10-17T07:34:29.269Z,99.99
2022-10-17T07:35:29.157Z,99.99
2022-10-17T07:36:29.067Z,99.99
2022-10-17T07:37:29.323Z,99.99
2022-10-17T07:38:28.890Z,99.99
2022-10-17T07:39:28.747Z,99.99
2022-10-17T07:40:28.632Z,99.99
2022-10-17T07:41:28.528Z,99.99
2022-10-17T07:42:28.479Z,99.99
2022-10-17T07:43:28.310Z,99.99
2022-10-17T07:44:28.200Z,99.99
2022-10-17T07:45:28.081Z,99.99
2022-10-17T07:46:27.971Z,99.99
2022-10-17T07:47:28.097Z,99.99
2022-10-17T07:48:27.758Z,99.99
2022-10-17T07:49:27.643Z,99.99
2022-10-17T07:50:27.532Z,99.99
2022-10-17T07:51:27.483Z,99.99
2022-10-17T07:52:27.616Z,99.99
2022-10-17T07:53:27.163Z,99.99
2022-10-17T07:54:27.068Z,99.99
2022-10-17T07:55:26.954Z,99.99
2022-10-17T07:56:26.844Z,99.99
2022-10-17T07:57:26.771Z,99.99
2022-10-17T07:58:26.596Z,99.99
2022-10-17T07:59:26.495Z,99.99
2022-10-17T08:00:26.384Z,99.99
2022-10-17T08:01:26.248Z,99.99
2022-10-17T08:02:26.149Z,99.99
2022-10-17T08:03:26.025Z,99.99
2022-10-17T08:04:26.010Z,99.99
2022-10-17T08:05:25.805Z,99.99
2022-10-17T08:06:25.706Z,99.99
2022-10-17T08:07:29.351Z,99.99
2022-10-17T08:08:25.468Z,99.99
2022-10-17T08:09:25.326Z,99.99
2022-10-17T08:10:25.229Z,99.99
2022-10-17T08:11:25.089Z,99.99
2022-10-17T08:12:24.970Z,99.99
2022-10-17T08:13:24.850Z,99.99
2022-10-17T08:14:24.730Z,99.99
2022-10-17T08:15:27.963Z,99.99
2022-10-17T08:16:25.500Z,99.99
2022-10-17T08:17:24.385Z,99.99
2022-10-17T08:18:24.253Z,99.99
2022-10-17T08:19:24.131Z,99.99
2022-10-17T08:20:24.033Z,99.99
2022-10-17T08:21:23.888Z,99.99
2022-10-17T08:22:23.760Z,99.99
2022-10-17T08:23:23.630Z,99.99
2022-10-17T08:24:23.493Z,99.99
2022-10-17T08:25:23.355Z,99.99
2022-10-17T08:26:23.244Z,99.99
2022-10-17T08:27:23.105Z,99.99
2022-10-17T08:28:23.077Z,99.99
2022-10-17T08:29:22.895Z,99.99
2022-10-17T08:30:22.725Z,99.99
2022-10-17T08:31:22.594Z,99.99
2022-10-17T08:32:22.456Z,99.99
2022-10-17T08:33:22.327Z,99.99
2022-10-17T08:34:22.205Z,99.99
2022-10-17T08:35:22.067Z,99.99
2022-10-17T08:36:21.927Z,99.99
2022-10-17T08:37:21.784Z,99.99
2022-10-17T08:38:23.292Z,99.99
2022-10-17T08:39:21.510Z,99.99
2022-10-17T08:40:21.377Z,99.99
2022-10-17T08:41:21.257Z,99.99
2022-10-17T08:42:21.109Z,99.99
2022-10-17T08:43:20.970Z,99.99
2022-10-17T08:44:20.850Z,99.99
2022-10-17T08:45:20.701Z,99.99
2022-10-17T08:46:20.778Z,99.99
2022-10-17T08:47:20.440Z,99.99
2022-10-17T08:48:20.320Z,99.99
2022-10-17T08:49:20.163Z,99.99
2022-10-17T08:50:20.041Z,99.99
2022-10-17T08:51:19.902Z,99.99
2022-10-17T08:52:19.800Z,99.99
2022-10-17T08:53:19.633Z,99.99
2022-10-17T08:54:19.504Z,99.99
2022-10-17T08:56:19.925Z,99.99
2022-10-17T08:57:20.094Z,99.99
2022-10-17T08:58:18.946Z,99.99
2022-10-17T08:59:18.803Z,99.99
2022-10-17T09:00:18.666Z,99.99
2022-10-17T09:01:18.526Z,99.99
2022-10-17T09:02:18.394Z,99.99
2022-10-17T09:03:18.286Z,99.99
2022-10-17T09:04:18.150Z,99.99
2022-10-17T09:05:19.329Z,99.99
2022-10-17T09:06:17.828Z,99.21
2022-10-17T09:07:17.709Z,97.69
2022-10-17T09:08:17.557Z,95.76
2022-10-17T09:09:17.402Z,96.22
2022-10-17T09:10:17.262Z,94.50
2022-10-17T09:11:17.109Z,94.91
2022-10-17T09:12:17.061Z,94.91
2022-10-17T09:13:16.811Z,93.29
2022-10-17T09:14:16.681Z,94.10
2022-10-17T09:15:16.540Z,94.30
2022-10-17T09:16:16.391Z,93.90
2022-10-17T09:17:16.231Z,93.49
2022-10-17T09:18:18.648Z,92.38
2022-10-17T09:19:16.941Z,93.19
2022-10-17T09:20:15.792Z,90.72
2022-10-17T09:21:15.666Z,92.03
2022-10-17T09:22:15.514Z,93.15
2022-10-17T09:23:15.355Z,93.71
2022-10-17T09:24:15.967Z,92.90
2022-10-17T09:25:15.062Z,93.10
2022-10-17T09:26:14.917Z,93.91
2022-10-17T09:27:14.775Z,91.58
2022-10-17T09:28:14.649Z,91.58
2022-10-17T09:29:14.477Z,92.90
2022-10-17T09:30:26.982Z,93.60
2022-10-17T09:31:15.167Z,93.51
2022-10-17T09:32:14.033Z,91.78
2022-10-17T09:33:23.332Z,91.28
2022-10-17T09:34:14.708Z,91.18
2022-10-17T09:35:13.600Z,89.76
2022-10-17T09:36:13.409Z,90.98
2022-10-17T09:37:13.250Z,90.58
2022-10-17T09:38:13.103Z,89.97
2022-10-17T09:39:12.934Z,89.87
2022-10-17T09:40:12.781Z,91.03
2022-10-17T09:41:39.166Z,91.24
2022-10-17T09:42:13.451Z,90.83
2022-10-17T09:43:12.293Z,89.12
2022-10-17T09:44:12.162Z,89.22
2022-10-17T09:45:11.963Z,89.22
2022-10-17T09:46:11.804Z,89.98
2022-10-17T09:47:11.645Z,89.88
2022-10-17T09:48:11.495Z,89.07
2022-10-17T09:49:13.503Z,90.59
2022-10-17T09:50:12.163Z,89.98
2022-10-17T09:51:21.964Z,90.28
2022-10-17T09:52:11.828Z,90.19
2022-10-17T09:53:10.648Z,91.19
2022-10-17T09:54:10.506Z,90.99
2022-10-17T09:55:10.340Z,90.08
2022-10-17T09:56:10.175Z,87.32
2022-10-17T09:57:10.005Z,88.63
2022-10-17T09:58:09.840Z,87.82
2022-10-17T09:59:13.654Z,89.74
2022-10-17T10:00:09.579Z,90.24
2022-10-17T10:01:09.458Z,89.74
2022-10-17T10:02:09.189Z,88.02
2022-10-17T10:03:09.027Z,88.32
2022-10-17T10:04:08.870Z,88.28
2022-10-17T10:05:08.823Z,88.79
2022-10-17T10:06:08.552Z,87.38
2022-10-17T10:07:08.361Z,89.19
2022-10-17T10:08:08.345Z,85.86
2022-10-17T10:09:08.042Z,88.34
2022-10-17T10:10:07.910Z,88.65
2022-10-17T10:11:07.867Z,88.54
2022-10-17T10:12:07.553Z,86.63
2022-10-17T10:13:07.385Z,87.03
2022-10-17T10:14:07.220Z,87.60
2022-10-17T10:15:07.054Z,88.70
2022-10-17T10:16:07.028Z,88.10
2022-10-17T10:17:06.724Z,88.60
2022-10-17T10:18:06.567Z,87.29
2022-10-17T10:19:08.503Z,89.01
2022-10-17T10:20:06.292Z,88.40
2022-10-17T10:21:06.079Z,88.20
2022-10-17T10:22:05.907Z,87.09
2022-10-17T10:23:05.778Z,87.60
2022-10-17T10:24:05.591Z,86.89
2022-10-17T10:25:05.397Z,86.49
2022-10-17T10:26:05.250Z,84.57
2022-10-17T10:27:05.200Z,86.08
2022-10-17T10:28:04.916Z,86.58
2022-10-17T10:29:04.799Z,86.49
2022-10-17T10:30:04.562Z,86.69
2022-10-17T10:31:04.465Z,85.28
2022-10-17T10:32:04.234Z,87.09
2022-10-17T10:33:04.102Z,88.30
2022-10-17T10:34:03.882Z,87.49
2022-10-17T10:35:03.713Z,87.09
2022-10-17T10:36:03.542Z,86.58
2022-10-17T10:37:03.366Z,88.20
2022-10-17T10:38:03.192Z,85.48
2022-10-17T10:39:04.662Z,86.29
2022-10-17T10:40:02.913Z,86.79
2022-10-17T10:41:02.676Z,87.09
2022-10-17T10:42:02.520Z,87.25
2022-10-17T10:43:05.495Z,86.04
2022-10-17T10:44:02.208Z,87.45
2022-10-17T10:45:02.112Z,85.74
2022-10-17T10:46:01.831Z,85.54
2022-10-17T10:47:01.660Z,87.05
2022-10-17T10:48:01.503Z,85.20
2022-10-17T10:49:01.336Z,86.91
2022-10-17T10:50:01.141Z,85.60
2022-10-17T10:51:01.024Z,84.59
2022-10-17T10:52:00.813Z,84.29
2022-10-17T10:53:00.632Z,83.79
2022-10-17T10:54:00.452Z,83.18
2022-10-17T10:55:00.445Z,83.99
2022-10-17T10:56:00.119Z,84.95
2022-10-17T10:56:59.946Z,85.86
2022-10-17T10:57:59.814Z,85.66
2022-10-17T10:58:59.645Z,85.66
2022-10-17T10:59:59.416Z,85.72
2022-10-17T11:00:59.271Z,84.25
2022-10-17T11:01:59.056Z,83.04
2022-10-17T11:03:00.457Z,84.25
2022-10-17T11:03:58.716Z,83.75
2022-10-17T11:04:58.548Z,85.76
2022-10-17T11:05:58.542Z,84.85
2022-10-17T11:06:58.188Z,83.95
2022-10-17T11:07:58.158Z,84.05
2022-10-17T11:08:57.889Z,83.95
2022-10-17T11:09:57.661Z,84.55
2022-10-17T11:10:57.502Z,84.65
2022-10-17T11:11:57.323Z,84.15
2022-10-17T11:12:57.241Z,83.54
2022-10-17T11:13:56.973Z,83.84
2022-10-17T11:14:56.801Z,84.65
2022-10-17T11:15:56.655Z,85.96
2022-10-17T11:16:56.453Z,86.63
2022-10-17T11:17:56.299Z,87.27
2022-10-17T11:18:56.131Z,86.57
2022-10-17T11:19:55.964Z,85.72
2022-10-17T11:20:55.872Z,86.93
2022-10-17T11:21:55.608Z,87.93
2022-10-17T11:22:55.445Z,87.83
2022-10-17T11:23:55.266Z,87.63
2022-10-17T11:24:55.134Z,83.61
2022-10-17T11:25:54.946Z,82.60
2022-10-17T11:26:54.739Z,81.19
2022-10-17T11:27:54.605Z,82.26
2022-10-17T11:28:54.489Z,83.26
2022-10-17T11:29:54.237Z,83.17
2022-10-17T11:30:54.078Z,82.66
2022-10-17T11:31:53.890Z,82.46
2022-10-17T11:32:53.735Z,82.46
2022-10-17T11:33:53.726Z,83.06
2022-10-17T11:34:53.381Z,82.86
2022-10-17T11:35:53.221Z,83.57
2022-10-17T11:36:53.041Z,81.76
2022-10-17T11:37:52.922Z,82.36
2022-10-17T11:38:52.804Z,83.97
2022-10-17T11:39:52.524Z,83.37
2022-10-17T11:40:52.365Z,83.26
2022-10-17T11:41:53.363Z,83.26
2022-10-17T11:42:52.004Z,84.01
2022-10-17T11:43:51.846Z,84.41
2022-10-17T11:44:51.673Z,84.97
2022-10-17T11:45:51.490Z,85.78
2022-10-17T11:46:51.326Z,86.72
2022-10-17T11:47:51.138Z,83.71
2022-10-17T11:48:51.158Z,83.57
2022-10-17T11:49:51.263Z,84.17
2022-10-17T11:52:00.772Z,84.27
2022-10-17T11:52:56.584Z,82.26
2022-10-17T11:53:51.283Z,83.57
2022-10-17T11:54:49.953Z,83.47
2022-10-17T11:55:49.770Z,83.57
2022-10-17T11:56:49.621Z,83.17
2022-10-17T11:57:49.438Z,83.12
2022-10-17T11:58:49.455Z,82.46
2022-10-17T11:59:49.119Z,82.82
2022-10-17T12:00:49.695Z,82.02
2022-10-17T12:01:48.762Z,82.42
2022-10-17T12:02:48.712Z,81.62
2022-10-17T12:03:48.577Z,81.92
2022-10-17T12:04:49.586Z,82.52
2022-10-17T12:05:48.074Z,82.32
2022-10-17T12:06:47.914Z,82.62
2022-10-17T12:07:47.872Z,82.82
2022-10-17T12:08:47.577Z,81.32
2022-10-17T12:09:47.403Z,80.71
2022-10-17T12:10:47.240Z,80.61
2022-10-17T12:11:47.056Z,80.88
2022-10-17T12:12:47.012Z,81.38
2022-10-17T12:13:46.729Z,80.57
2022-10-17T12:14:46.590Z,80.57
2022-10-17T12:15:46.796Z,81.38
2022-10-17T12:16:46.212Z,80.88
2022-10-17T12:17:46.046Z,80.57
2022-10-17T12:18:45.860Z,82.48
2022-10-17T12:19:45.688Z,81.98
2022-10-17T12:20:45.540Z,81.58
2022-10-17T12:21:45.370Z,81.18
2022-10-17T12:22:45.181Z,79.97
2022-10-17T12:23:45.134Z,82.18
2022-10-17T12:24:44.852Z,80.47
2022-10-17T12:25:44.715Z,80.37
2022-10-17T12:26:44.494Z,80.37
2022-10-17T12:27:44.323Z,79.97
2022-10-17T12:28:44.286Z,78.36
2022-10-17T12:29:43.984Z,79.27
2022-10-17T12:30:43.995Z,81.38
2022-10-17T12:31:43.677Z,79.97
2022-10-17T12:33:00.578Z,79.87
2022-10-17T12:33:44.307Z,81.18
2022-10-17T12:35:42.976Z,82.08
2022-10-17T12:36:42.963Z,80.47
2022-10-17T12:37:42.618Z,80.17
2022-10-17T12:38:43.589Z,78.46
2022-10-17T12:39:42.280Z,79.77
2022-10-17T12:40:46.320Z,80.07
2022-10-17T12:41:42.950Z,79.87
2022-10-17T12:42:41.760Z,79.37
2022-10-17T12:43:44.098Z,79.43
2022-10-17T12:44:41.487Z,79.77
2022-10-17T12:45:41.253Z,79.37
2022-10-17T12:46:41.050Z,79.97
2022-10-17T12:47:40.995Z,79.57
2022-10-17T12:48:40.709Z,79.87
2022-10-17T12:49:40.524Z,79.57
2022-10-17T12:50:40.344Z,77.86
2022-10-17T12:51:40.216Z,77.42
2022-10-17T12:52:40.249Z,79.83
2022-10-17T12:53:39.824Z,79.63
2022-10-17T12:54:47.832Z,78.22
2022-10-17T12:55:40.456Z,77.32
2022-10-17T12:56:39.285Z,78.03
2022-10-17T12:57:39.257Z,78.63
2022-10-17T12:58:39.194Z,78.63
2022-10-17T12:59:38.766Z,79.13
2022-10-17T13:00:38.678Z,79.93
2022-10-17T13:01:38.400Z,79.13
2022-10-17T13:02:38.198Z,78.03
2022-10-17T13:03:38.076Z,78.63
2022-10-17T13:04:37.833Z,78.22
2022-10-17T13:05:37.641Z,77.72
2022-10-17T13:06:37.478Z,78.03
2022-10-17T13:07:37.311Z,77.83
2022-10-17T13:08:37.110Z,77.12
2022-10-17T13:09:36.932Z,78.33
2022-10-17T13:10:38.091Z,77.42
2022-10-17T13:11:36.580Z,78.33
2022-10-17T13:12:40.274Z,77.62
2022-10-17T13:13:36.264Z,77.72
2022-10-17T13:14:36.038Z,77.22
2022-10-17T13:15:35.843Z,75.92
2022-10-17T13:16:35.687Z,76.32
2022-10-17T13:17:35.485Z,77.92
2022-10-17T13:18:35.323Z,78.22
2022-10-17T13:19:35.211Z,78.93
2022-10-17T13:20:35.035Z,78.93
2022-10-17T13:21:34.815Z,77.72
2022-10-17T13:22:34.620Z,76.72
2022-10-17T13:23:34.431Z,77.42
2022-10-17T13:24:34.250Z,78.12
2022-10-17T13:25:37.626Z,79.13
2022-10-17T13:26:34.901Z,77.52
2022-10-17T13:27:33.763Z,77.72
2022-10-17T13:28:38.421Z,77.92
2022-10-17T13:29:34.354Z,77.32
2022-10-17T13:30:33.198Z,77.62
2022-10-17T13:31:33.140Z,77.62
2022-10-17T13:32:32.875Z,78.03
2022-10-17T13:33:32.673Z,77.52
2022-10-17T13:34:32.511Z,78.53
2022-10-17T13:35:58.741Z,78.73
2022-10-17T13:36:33.224Z,78.33
2022-10-17T13:37:32.034Z,77.92
2022-10-17T13:38:31.795Z,78.73
2022-10-17T13:39:52.508Z,77.62
2022-10-17T13:40:48.395Z,76.42
2022-10-17T13:41:36.264Z,77.42
2022-10-17T13:42:31.422Z,76.96
2022-10-17T13:43:30.907Z,77.32
2022-10-17T13:44:30.790Z,75.75
2022-10-17T13:45:30.577Z,76.92
2022-10-17T13:46:37.784Z,76.82
2022-10-17T13:47:31.258Z,77.36
2022-10-17T13:48:30.050Z,77.72
2022-10-17T13:49:29.880Z,76.56
2022-10-17T13:50:43.645Z,78.12
2022-10-17T13:51:30.534Z,76.42
2022-10-17T13:52:29.784Z,76.92
2022-10-17T13:53:29.212Z,75.92
2022-10-17T13:54:29.008Z,73.71
2022-10-17T13:55:28.812Z,75.31
2022-10-17T13:56:29.990Z,75.42
2022-10-17T13:57:28.713Z,76.21
2022-10-17T13:58:28.481Z,76.52
2022-10-17T13:59:28.165Z,75.31
2022-10-17T14:00:28.005Z,76.12
2022-10-17T14:01:27.796Z,75.21
2022-10-17T14:02:27.608Z,74.51
2022-10-17T14:03:36.559Z,74.71
2022-10-17T14:04:28.215Z,73.41
2022-10-17T14:05:27.040Z,72.90
2022-10-17T14:06:27.101Z,74.21
2022-10-17T14:07:27.039Z,74.41
2022-10-17T14:08:26.515Z,75.92
2022-10-17T14:09:26.310Z,74.51
2022-10-17T14:10:26.128Z,75.11
2022-10-17T14:11:25.958Z,74.41
2022-10-17T14:12:25.811Z,73.30
2022-10-17T14:13:25.603Z,73.71
2022-10-17T14:14:25.402Z,73.61
2022-10-17T14:15:25.213Z,74.51
2022-10-17T14:16:25.034Z,75.01
2022-10-17T14:17:24.843Z,74.41
2022-10-17T14:18:24.684Z,75.05
2022-10-17T14:19:24.483Z,75.05
2022-10-17T14:20:57.473Z,75.05
2022-10-17T14:21:43.318Z,74.95
2022-10-17T14:22:24.935Z,75.05
2022-10-17T14:23:23.815Z,75.35
2022-10-17T14:24:23.587Z,76.96
2022-10-17T14:25:23.404Z,74.65
2022-10-17T14:26:23.276Z,75.95
2022-10-17T14:27:23.067Z,75.35
2022-10-17T14:28:22.892Z,75.25
2022-10-17T14:29:22.658Z,76.25
2022-10-17T14:30:38.677Z,77.06
2022-10-17T14:31:23.308Z,76.49
2022-10-17T14:32:22.187Z,76.79
2022-10-17T14:33:21.940Z,77.29
2022-10-17T14:34:21.765Z,77.59
2022-10-17T14:35:41.046Z,77.70
2022-10-17T14:36:22.406Z,76.19
2022-10-17T14:37:21.225Z,76.39
2022-10-17T14:38:21.034Z,77.09
2022-10-17T14:39:20.844Z,75.38
2022-10-17T14:40:20.643Z,76.59
2022-10-17T14:41:42.289Z,77.20
2022-10-17T14:42:21.273Z,77.29
2022-10-17T14:43:20.105Z,76.29
2022-10-17T14:44:19.905Z,77.20
2022-10-17T14:45:23.473Z,75.89
2022-10-17T14:46:19.568Z,76.69
2022-10-17T14:47:42.294Z,77.13
2022-10-17T14:48:20.187Z,78.34
2022-10-17T14:49:24.051Z,78.23
2022-10-17T14:50:19.820Z,78.64
2022-10-17T14:51:18.674Z,78.64
2022-10-17T14:52:19.062Z,77.53
2022-10-17T14:53:18.286Z,77.83
2022-10-17T14:54:18.110Z,76.76
2022-10-17T14:55:17.898Z,76.03
2022-10-17T14:56:17.766Z,75.42
2022-10-17T14:57:17.540Z,75.52
2022-10-17T14:58:17.364Z,73.81
2022-10-17T14:59:30.129Z,75.12
2022-10-17T15:00:17.989Z,76.12
2022-10-17T15:01:16.821Z,75.82
2022-10-17T15:02:16.647Z,75.62
2022-10-17T15:03:16.687Z,76.87
2022-10-17T15:04:16.338Z,76.97
2022-10-17T15:05:16.130Z,77.27
2022-10-17T15:06:15.977Z,78.47
2022-10-17T15:07:15.745Z,78.21
2022-10-17T15:08:15.587Z,79.52
2022-10-17T15:09:15.448Z,79.62
2022-10-17T15:10:15.226Z,78.01
2022-10-17T15:11:15.067Z,80.32
2022-10-17T15:12:14.921Z,81.63
2022-10-17T15:13:29.017Z,80.83
2022-10-17T15:14:15.572Z,79.96
2022-10-17T15:15:14.391Z,79.56
2022-10-17T15:16:14.212Z,78.15
2022-10-17T15:17:14.030Z,77.34
2022-10-17T15:18:13.861Z,78.35
2022-10-17T15:19:13.782Z,79.16
2022-10-17T15:20:13.503Z,77.95
2022-10-17T15:21:26.497Z,78.35
2022-10-17T15:22:14.144Z,78.35
2022-10-17T15:23:13.023Z,78.65
2022-10-17T15:24:12.804Z,79.56
2022-10-17T15:25:12.655Z,80.77
2022-10-17T15:26:12.466Z,78.28
2022-10-17T15:27:12.295Z,79.46
2022-10-17T15:28:12.116Z,82.31
2022-10-17T15:29:11.956Z,81.01
2022-10-17T15:30:11.808Z,81.51
2022-10-17T15:31:11.614Z,83.22
2022-10-17T15:32:11.483Z,83.12
2022-10-17T15:33:11.418Z,83.66
2022-10-17T15:34:11.138Z,83.87
2022-10-17T15:35:10.991Z,84.88
2022-10-17T15:36:10.789Z,85.08
2022-10-17T15:37:10.668Z,85.02
2022-10-17T15:38:10.615Z,85.11
2022-10-17T15:39:10.313Z,85.62
2022-10-17T15:40:10.169Z,86.02
2022-10-17T15:41:10.002Z,86.43
2022-10-17T15:42:09.820Z,87.34
2022-10-17T15:43:09.694Z,87.48
2022-10-17T15:44:09.516Z,87.58
2022-10-17T15:46:09.193Z,88.59
2022-10-17T15:47:09.052Z,88.83
2022-10-17T15:48:08.893Z,88.12
2022-10-17T15:49:08.905Z,88.02
2022-10-17T15:50:08.594Z,88.02
2022-10-17T15:51:08.445Z,88.12
2022-10-17T15:52:08.336Z,88.32
2022-10-17T15:53:08.107Z,88.57
2022-10-17T15:54:08.060Z,88.87
2022-10-17T15:55:07.807Z,89.07
2022-10-17T15:56:07.659Z,89.01
2022-10-17T15:57:07.478Z,89.32
2022-10-17T15:58:07.328Z,89.92
2022-10-17T15:59:07.229Z,90.03
2022-10-17T16:00:06.989Z,89.87
2022-10-17T16:01:06.948Z,89.87
2022-10-17T16:02:06.715Z,90.58
2022-10-17T16:03:06.523Z,91.42
2022-10-17T16:04:06.331Z,91.53
2022-10-17T16:05:06.201Z,91.93
2022-10-17T16:06:08.519Z,92.54
2022-10-17T16:07:05.974Z,92.84
2022-10-17T16:08:05.750Z,92.68
2022-10-17T16:09:05.559Z,92.48
2022-10-17T16:10:05.396Z,92.48
2022-10-17T16:11:05.279Z,92.08
2022-10-17T16:12:05.153Z,91.61
2022-10-17T16:13:04.944Z,91.61
2022-10-17T16:14:04.825Z,91.71
2022-10-17T16:15:04.644Z,91.46
2022-10-17T16:16:04.507Z,92.16
2022-10-17T16:17:04.340Z,92.47
2022-10-17T16:18:06.692Z,92.82
2022-10-17T16:19:04.698Z,93.32
2022-10-17T16:20:03.898Z,93.32
2022-10-17T16:21:03.835Z,93.22
2022-10-17T16:22:04.587Z,93.16
2022-10-17T16:23:03.450Z,93.06
2022-10-17T16:24:03.287Z,93.37
2022-10-17T16:25:03.142Z,94.18
2022-10-17T16:26:03.011Z,94.38
2022-10-17T16:27:02.986Z,94.12
2022-10-17T16:28:02.699Z,93.71
2022-10-17T16:29:02.787Z,93.81
2022-10-17T16:30:02.399Z,94.62
2022-10-17T16:31:02.327Z,94.83
2022-10-17T16:32:02.120Z,94.37
2022-10-17T16:33:01.973Z,94.17
2022-10-17T16:34:01.821Z,95.07
2022-10-17T16:35:01.707Z,95.48
2022-10-17T16:36:01.692Z,94.77
2022-10-17T16:37:01.394Z,94.10
2022-10-17T16:38:01.398Z,94.00
2022-10-17T16:39:01.116Z,94.21
2022-10-17T16:40:00.986Z,95.32
2022-10-17T16:41:00.999Z,94.15
2022-10-17T16:42:00.689Z,93.95
2022-10-17T16:43:00.669Z,93.99
2022-10-17T16:44:00.426Z,93.89
2022-10-17T16:45:00.276Z,93.89
2022-10-17T16:46:00.248Z,93.93
2022-10-17T16:47:00.046Z,94.13
2022-10-17T16:47:59.859Z,94.85
2022-10-17T16:48:59.769Z,94.44
2022-10-17T16:49:59.593Z,94.13
2022-10-17T16:50:59.439Z,94.48
2022-10-17T16:51:59.362Z,95.00
2022-10-17T16:52:59.155Z,95.30
2022-10-17T16:53:59.015Z,95.30
2022-10-17T16:54:58.897Z,94.38
2022-10-17T16:55:58.767Z,94.12
2022-10-17T16:56:58.632Z,94.23
2022-10-17T16:57:58.463Z,94.12
2022-10-17T16:58:58.330Z,94.37
2022-10-17T16:59:58.168Z,94.57
2022-10-17T17:00:58.061Z,94.68
2022-10-17T17:01:57.914Z,94.98
2022-10-17T17:02:57.751Z,95.18
2022-10-17T17:03:57.614Z,95.29
2022-10-17T17:04:57.483Z,95.59
2022-10-17T17:05:57.334Z,95.79
2022-10-17T17:06:57.261Z,95.79
2022-10-17T17:07:57.066Z,95.90
2022-10-17T17:08:56.945Z,95.43
2022-10-17T17:09:56.806Z,95.03
2022-10-17T17:10:56.775Z,95.03
2022-10-17T17:11:56.548Z,95.64
2022-10-17T17:12:56.406Z,95.94
2022-10-17T17:13:56.251Z,95.64
2022-10-17T17:14:56.122Z,95.89
2022-10-17T17:15:55.988Z,95.28
2022-10-17T17:16:55.852Z,95.07
2022-10-17T17:17:56.304Z,94.97
2022-10-17T17:18:55.580Z,95.17
2022-10-17T17:19:55.578Z,96.03
2022-10-17T17:20:55.336Z,96.23
2022-10-17T17:21:55.161Z,96.64
2022-10-17T17:22:55.059Z,96.84
2022-10-17T17:23:54.924Z,96.75
2022-10-17T17:24:54.791Z,96.64
2022-10-17T17:25:54.652Z,96.64
2022-10-17T17:26:54.616Z,96.59
2022-10-17T17:27:54.426Z,96.28
2022-10-17T17:28:54.453Z,96.28
2022-10-17T17:29:54.147Z,96.69
2022-10-17T17:30:54.038Z,96.79
2022-10-17T17:31:53.906Z,96.79
2022-10-17T17:32:53.795Z,96.79
2022-10-17T17:33:53.660Z,96.69
2022-10-17T17:34:53.541Z,96.38
2022-10-17T17:35:53.602Z,96.12
2022-10-17T17:36:53.298Z,96.22
2022-10-17T17:37:53.221Z,96.43
2022-10-17T17:38:53.068Z,96.43
2022-10-17T17:39:52.920Z,96.94
2022-10-17T17:40:52.895Z,97.24
2022-10-17T17:41:52.678Z,97.86
2022-10-17T17:42:52.607Z,97.86
2022-10-17T17:43:52.441Z,97.65
2022-10-17T17:44:52.328Z,97.75
2022-10-17T17:45:52.190Z,97.55
2022-10-17T17:46:52.088Z,97.19
2022-10-17T17:47:51.933Z,97.08
2022-10-17T17:48:51.832Z,97.08
2022-10-17T17:49:51.690Z,97.08
2022-10-17T17:50:51.581Z,96.98
2022-10-17T17:51:51.571Z,96.98
2022-10-17T17:52:51.349Z,97.19
2022-10-17T17:53:51.233Z,97.49
2022-10-17T17:54:51.237Z,97.39
2022-10-17T17:55:50.984Z,97.44
2022-10-17T17:56:50.878Z,97.54
2022-10-17T17:57:50.781Z,97.44
2022-10-17T17:58:50.654Z,97.44
2022-10-17T17:59:50.526Z,97.74
2022-10-17T18:00:50.415Z,98.05
2022-10-17T18:01:50.334Z,98.15
2022-10-17T18:02:50.158Z,98.15
2022-10-17T18:03:50.047Z,97.85
2022-10-17T18:04:49.937Z,97.24
2022-10-17T18:05:49.796Z,97.03
2022-10-17T18:06:49.688Z,97.03
2022-10-17T18:07:49.558Z,97.17
2022-10-17T18:08:49.430Z,97.58
2022-10-17T18:09:49.337Z,97.58
2022-10-17T18:10:49.199Z,97.69
2022-10-17T18:11:49.079Z,97.69
2022-10-17T18:12:48.950Z,97.49
2022-10-17T18:13:48.839Z,97.28
2022-10-17T18:14:48.737Z,96.87
2022-10-17T18:15:48.600Z,96.97
2022-10-17T18:16:48.510Z,97.12
2022-10-17T18:17:48.380Z,97.12
2022-10-17T18:18:48.271Z,97.33
2022-10-17T18:19:48.177Z,97.33
2022-10-17T18:20:48.061Z,97.42
2022-10-17T18:21:47.933Z,97.83
2022-10-17T18:22:47.823Z,98.14
2022-10-17T18:23:47.734Z,98.65
2022-10-17T18:24:47.634Z,98.35
2022-10-17T18:25:47.483Z,98.04
2022-10-17T18:26:47.381Z,97.88
2022-10-17T18:27:47.281Z,97.74
2022-10-17T18:28:47.163Z,97.53
2022-10-17T18:29:47.086Z,97.47
2022-10-17T18:30:46.970Z,97.27
2022-10-17T18:31:46.835Z,97.06
2022-10-17T18:32:46.726Z,97.16
2022-10-17T18:33:46.636Z,97.06
2022-10-17T18:34:46.526Z,97.06
2022-10-17T18:35:46.406Z,97.16
2022-10-17T18:36:46.290Z,97.16
2022-10-17T18:37:46.200Z,97.37
2022-10-17T18:38:46.088Z,97.57
2022-10-17T18:39:45.967Z,98.19
2022-10-17T18:40:48.565Z,98.49
2022-10-17T18:41:45.759Z,98.70
2022-10-17T18:42:45.639Z,98.49